sensor_id;sensor_type;location;lat;lon;timestamp;P1;durP1;ratioP1;P2;durP2;ratioP2
51216;SDS011;37283;49.760;8.648;2022-12-18T00:01:43;40.47;;;22.67;;
51216;SDS011;37283;49.760;8.648;2022-12-18T00:04:15;43.50;;;23.95;;
51216;SDS011;37283;49.760;8.648;2022-12-18T00:06:46;42.13;;;23.90;;
51216;SDS011;37283;49.760;8.648;2022-12-18T00:09:13;44.72;;;25.25;;
51216;SDS011;37283;49.760;8.648;2022-12-18T00:11:40;50.22;;;25.65;;
51216;SDS011;37283;49.760;8.648;2022-12-18T00:14:06;45.05;;;25.10;;
51216;SDS011;37283;49.760;8.648;2022-12-18T00:16:33;46.13;;;23.48;;
51216;SDS011;37283;49.760;8.648;2022-12-18T00:19:02;38.38;;;21.95;;
51216;SDS011;37283;49.760;8.648;2022-12-18T00:21:29;39.85;;;22.65;;
51216;SDS011;37283;49.760;8.648;2022-12-18T00:23:57;41.85;;;22.65;;
51216;SDS011;37283;49.760;8.648;2022-12-18T00:26:25;44.63;;;23.85;;
51216;SDS011;37283;49.760;8.648;2022-12-18T00:29:00;47.70;;;24.48;;
51216;SDS011;37283;49.760;8.648;2022-12-18T00:31:32;50.83;;;25.20;;
51216;SDS011;37283;49.760;8.648;2022-12-18T00:34:00;45.78;;;24.83;;
51216;SDS011;37283;49.760;8.648;2022-12-18T00:36:28;50.08;;;27.08;;
51216;SDS011;37283;49.760;8.648;2022-12-18T00:38:57;47.83;;;25.02;;
51216;SDS011;37283;49.760;8.648;2022-12-18T00:41:24;49.70;;;24.80;;
51216;SDS011;37283;49.760;8.648;2022-12-18T00:44:10;43.33;;;24.25;;
51216;SDS011;37283;49.760;8.648;2022-12-18T00:46:38;45.85;;;24.65;;
51216;SDS011;37283;49.760;8.648;2022-12-18T00:49:06;43.80;;;24.38;;
51216;SDS011;37283;49.760;8.648;2022-12-18T00:51:33;46.97;;;24.98;;
51216;SDS011;37283;49.760;8.648;2022-12-18T00:54:00;46.25;;;24.90;;
51216;SDS011;37283;49.760;8.648;2022-12-18T00:56:27;43.03;;;23.75;;
51216;SDS011;37283;49.760;8.648;2022-12-18T00:58:53;49.35;;;24.98;;
51216;SDS011;37283;49.760;8.648;2022-12-18T01:01:20;46.08;;;23.92;;
51216;SDS011;37283;49.760;8.648;2022-12-18T01:03:47;45.42;;;24.13;;
51216;SDS011;37283;49.760;8.648;2022-12-18T01:06:15;43.85;;;23.25;;
51216;SDS011;37283;49.760;8.648;2022-12-18T01:08:43;44.35;;;22.90;;
51216;SDS011;37283;49.760;8.648;2022-12-18T01:13:40;46.92;;;23.02;;
51216;SDS011;37283;49.760;8.648;2022-12-18T01:16:07;43.60;;;23.33;;
51216;SDS011;37283;49.760;8.648;2022-12-18T01:18:35;53.22;;;25.75;;
51216;SDS011;37283;49.760;8.648;2022-12-18T01:21:05;42.88;;;23.30;;
51216;SDS011;37283;49.760;8.648;2022-12-18T01:23:35;45.25;;;23.60;;
51216;SDS011;37283;49.760;8.648;2022-12-18T01:26:06;46.75;;;23.67;;
51216;SDS011;37283;49.760;8.648;2022-12-18T01:28:34;45.65;;;22.98;;
51216;SDS011;37283;49.760;8.648;2022-12-18T01:31:18;49.30;;;25.13;;
51216;SDS011;37283;49.760;8.648;2022-12-18T01:33:49;50.20;;;24.77;;
51216;SDS011;37283;49.760;8.648;2022-12-18T01:36:19;43.53;;;23.13;;
51216;SDS011;37283;49.760;8.648;2022-12-18T01:38:50;41.88;;;21.67;;
51216;SDS011;37283;49.760;8.648;2022-12-18T01:41:19;37.15;;;20.13;;
51216;SDS011;37283;49.760;8.648;2022-12-18T01:43:50;43.78;;;22.55;;
51216;SDS011;37283;49.760;8.648;2022-12-18T01:46:20;38.65;;;20.92;;
51216;SDS011;37283;49.760;8.648;2022-12-18T01:48:51;45.25;;;21.83;;
51216;SDS011;37283;49.760;8.648;2022-12-18T01:51:20;42.70;;;22.80;;
51216;SDS011;37283;49.760;8.648;2022-12-18T01:53:47;42.85;;;23.27;;
51216;SDS011;37283;49.760;8.648;2022-12-18T01:56:15;45.10;;;23.45;;
51216;SDS011;37283;49.760;8.648;2022-12-18T02:01:14;42.28;;;22.30;;
51216;SDS011;37283;49.760;8.648;2022-12-18T02:03:41;45.47;;;24.42;;
51216;SDS011;37283;49.760;8.648;2022-12-18T02:06:20;44.65;;;23.38;;
51216;SDS011;37283;49.760;8.648;2022-12-18T02:11:47;47.08;;;23.52;;
51216;SDS011;37283;49.760;8.648;2022-12-18T02:14:31;41.33;;;21.80;;
51216;SDS011;37283;49.760;8.648;2022-12-18T02:17:06;46.67;;;23.60;;
51216;SDS011;37283;49.760;8.648;2022-12-18T02:19:50;41.03;;;21.48;;
51216;SDS011;37283;49.760;8.648;2022-12-18T02:28:56;47.95;;;24.48;;
51216;SDS011;37283;49.760;8.648;2022-12-18T02:31:23;43.63;;;22.97;;
51216;SDS011;37283;49.760;8.648;2022-12-18T02:33:53;43.28;;;22.95;;
51216;SDS011;37283;49.760;8.648;2022-12-18T02:36:22;44.40;;;22.75;;
51216;SDS011;37283;49.760;8.648;2022-12-18T02:38:52;47.03;;;24.48;;
51216;SDS011;37283;49.760;8.648;2022-12-18T02:41:20;46.95;;;23.63;;
51216;SDS011;37283;49.760;8.648;2022-12-18T02:43:59;45.35;;;23.90;;
51216;SDS011;37283;49.760;8.648;2022-12-18T02:46:34;46.50;;;23.50;;
51216;SDS011;37283;49.760;8.648;2022-12-18T02:51:52;45.55;;;23.30;;
51216;SDS011;37283;49.760;8.648;2022-12-18T02:54:28;44.03;;;22.42;;
51216;SDS011;37283;49.760;8.648;2022-12-18T02:57:05;45.88;;;24.00;;
51216;SDS011;37283;49.760;8.648;2022-12-18T02:59:41;46.97;;;22.95;;
51216;SDS011;37283;49.760;8.648;2022-12-18T03:02:20;49.00;;;23.60;;
51216;SDS011;37283;49.760;8.648;2022-12-18T03:05:12;48.40;;;23.52;;
51216;SDS011;37283;49.760;8.648;2022-12-18T03:07:41;46.30;;;23.55;;
51216;SDS011;37283;49.760;8.648;2022-12-18T03:10:35;48.10;;;23.15;;
51216;SDS011;37283;49.760;8.648;2022-12-18T03:13:19;48.60;;;24.25;;
51216;SDS011;37283;49.760;8.648;2022-12-18T03:16:00;43.95;;;21.42;;
51216;SDS011;37283;49.760;8.648;2022-12-18T03:21:28;46.45;;;23.05;;
51216;SDS011;37283;49.760;8.648;2022-12-18T03:23:57;47.08;;;23.30;;
51216;SDS011;37283;49.760;8.648;2022-12-18T03:26:25;53.00;;;25.05;;
51216;SDS011;37283;49.760;8.648;2022-12-18T03:28:58;47.65;;;23.05;;
51216;SDS011;37283;49.760;8.648;2022-12-18T03:31:27;49.17;;;23.83;;
51216;SDS011;37283;49.760;8.648;2022-12-18T03:33:59;49.00;;;24.88;;
51216;SDS011;37283;49.760;8.648;2022-12-18T03:36:37;46.90;;;23.05;;
51216;SDS011;37283;49.760;8.648;2022-12-18T03:39:04;48.13;;;24.02;;
51216;SDS011;37283;49.760;8.648;2022-12-18T03:41:43;47.40;;;23.17;;
51216;SDS011;37283;49.760;8.648;2022-12-18T03:44:21;42.08;;;22.10;;
51216;SDS011;37283;49.760;8.648;2022-12-18T03:55:16;45.60;;;22.48;;
51216;SDS011;37283;49.760;8.648;2022-12-18T03:57:47;43.78;;;22.85;;
51216;SDS011;37283;49.760;8.648;2022-12-18T04:00:14;50.45;;;23.50;;
51216;SDS011;37283;49.760;8.648;2022-12-18T04:02:55;48.70;;;24.30;;
51216;SDS011;37283;49.760;8.648;2022-12-18T04:05:31;45.65;;;23.50;;
51216;SDS011;37283;49.760;8.648;2022-12-18T04:08:00;50.05;;;23.83;;
51216;SDS011;37283;49.760;8.648;2022-12-18T04:10:27;46.40;;;24.83;;
51216;SDS011;37283;49.760;8.648;2022-12-18T04:12:57;47.65;;;23.70;;
51216;SDS011;37283;49.760;8.648;2022-12-18T04:15:25;42.97;;;23.33;;
51216;SDS011;37283;49.760;8.648;2022-12-18T04:17:52;51.42;;;25.13;;
51216;SDS011;37283;49.760;8.648;2022-12-18T04:20:22;47.05;;;24.45;;
51216;SDS011;37283;49.760;8.648;2022-12-18T04:22:48;47.05;;;23.25;;
51216;SDS011;37283;49.760;8.648;2022-12-18T04:25:17;45.67;;;22.52;;
51216;SDS011;37283;49.760;8.648;2022-12-18T04:28:04;46.83;;;23.15;;
51216;SDS011;37283;49.760;8.648;2022-12-18T04:30:32;45.28;;;22.55;;
51216;SDS011;37283;49.760;8.648;2022-12-18T04:32:58;43.92;;;22.27;;
51216;SDS011;37283;49.760;8.648;2022-12-18T04:35:26;44.78;;;22.65;;
51216;SDS011;37283;49.760;8.648;2022-12-18T04:37:52;45.97;;;23.88;;
51216;SDS011;37283;49.760;8.648;2022-12-18T04:40:18;41.58;;;21.92;;
51216;SDS011;37283;49.760;8.648;2022-12-18T04:42:47;45.63;;;21.98;;
51216;SDS011;37283;49.760;8.648;2022-12-18T04:45:13;45.90;;;21.42;;
51216;SDS011;37283;49.760;8.648;2022-12-18T04:47:40;41.90;;;22.17;;
51216;SDS011;37283;49.760;8.648;2022-12-18T04:50:06;43.17;;;20.45;;
51216;SDS011;37283;49.760;8.648;2022-12-18T04:52:33;41.20;;;21.38;;
51216;SDS011;37283;49.760;8.648;2022-12-18T04:54:59;42.03;;;21.50;;
51216;SDS011;37283;49.760;8.648;2022-12-18T04:57:26;38.60;;;21.60;;
51216;SDS011;37283;49.760;8.648;2022-12-18T04:59:52;42.20;;;21.70;;
51216;SDS011;37283;49.760;8.648;2022-12-18T05:02:19;42.55;;;22.77;;
51216;SDS011;37283;49.760;8.648;2022-12-18T05:04:45;39.42;;;20.42;;
51216;SDS011;37283;49.760;8.648;2022-12-18T05:07:12;41.72;;;22.13;;
51216;SDS011;37283;49.760;8.648;2022-12-18T05:09:38;45.53;;;22.40;;
51216;SDS011;37283;49.760;8.648;2022-12-18T05:12:05;39.67;;;21.52;;
51216;SDS011;37283;49.760;8.648;2022-12-18T05:14:31;45.25;;;21.83;;
51216;SDS011;37283;49.760;8.648;2022-12-18T05:16:58;46.92;;;21.98;;
51216;SDS011;37283;49.760;8.648;2022-12-18T05:19:26;44.78;;;21.20;;
51216;SDS011;37283;49.760;8.648;2022-12-18T05:21:53;35.00;;;19.35;;
51216;SDS011;37283;49.760;8.648;2022-12-18T05:24:19;41.70;;;19.90;;
51216;SDS011;37283;49.760;8.648;2022-12-18T05:26:46;41.55;;;19.90;;
51216;SDS011;37283;49.760;8.648;2022-12-18T05:29:12;37.08;;;19.30;;
51216;SDS011;37283;49.760;8.648;2022-12-18T05:31:39;37.95;;;21.20;;
51216;SDS011;37283;49.760;8.648;2022-12-18T05:34:07;38.88;;;19.35;;
51216;SDS011;37283;49.760;8.648;2022-12-18T05:36:35;37.63;;;19.85;;
51216;SDS011;37283;49.760;8.648;2022-12-18T05:39:02;37.63;;;19.05;;
51216;SDS011;37283;49.760;8.648;2022-12-18T05:41:29;36.63;;;19.42;;
51216;SDS011;37283;49.760;8.648;2022-12-18T05:43:56;40.85;;;20.85;;
51216;SDS011;37283;49.760;8.648;2022-12-18T05:46:22;38.97;;;19.98;;
51216;SDS011;37283;49.760;8.648;2022-12-18T05:48:50;38.88;;;20.77;;
51216;SDS011;37283;49.760;8.648;2022-12-18T05:51:17;40.55;;;19.92;;
51216;SDS011;37283;49.760;8.648;2022-12-18T05:53:45;44.30;;;21.65;;
51216;SDS011;37283;49.760;8.648;2022-12-18T05:56:13;41.08;;;21.38;;
51216;SDS011;37283;49.760;8.648;2022-12-18T05:58:41;40.72;;;21.33;;
51216;SDS011;37283;49.760;8.648;2022-12-18T06:01:09;38.00;;;19.92;;
51216;SDS011;37283;49.760;8.648;2022-12-18T06:03:40;46.03;;;21.75;;
51216;SDS011;37283;49.760;8.648;2022-12-18T06:06:18;46.70;;;22.00;;
51216;SDS011;37283;49.760;8.648;2022-12-18T06:08:46;42.80;;;21.95;;
51216;SDS011;37283;49.760;8.648;2022-12-18T06:11:13;41.28;;;22.70;;
51216;SDS011;37283;49.760;8.648;2022-12-18T06:13:43;40.17;;;20.33;;
51216;SDS011;37283;49.760;8.648;2022-12-18T06:16:09;46.10;;;22.83;;
51216;SDS011;37283;49.760;8.648;2022-12-18T06:18:36;44.28;;;21.40;;
51216;SDS011;37283;49.760;8.648;2022-12-18T06:21:03;43.50;;;21.70;;
51216;SDS011;37283;49.760;8.648;2022-12-18T06:23:29;46.45;;;21.45;;
51216;SDS011;37283;49.760;8.648;2022-12-18T06:25:56;44.40;;;21.65;;
51216;SDS011;37283;49.760;8.648;2022-12-18T06:28:22;44.13;;;21.95;;
51216;SDS011;37283;49.760;8.648;2022-12-18T06:30:49;43.30;;;21.98;;
51216;SDS011;37283;49.760;8.648;2022-12-18T06:33:16;45.75;;;21.90;;
51216;SDS011;37283;49.760;8.648;2022-12-18T06:35:43;40.83;;;21.23;;
51216;SDS011;37283;49.760;8.648;2022-12-18T06:38:09;41.13;;;21.50;;
51216;SDS011;37283;49.760;8.648;2022-12-18T06:40:36;41.20;;;20.38;;
51216;SDS011;37283;49.760;8.648;2022-12-18T06:43:04;43.40;;;21.40;;
51216;SDS011;37283;49.760;8.648;2022-12-18T06:45:31;44.65;;;20.88;;
51216;SDS011;37283;49.760;8.648;2022-12-18T06:47:57;44.03;;;23.20;;
51216;SDS011;37283;49.760;8.648;2022-12-18T06:50:24;48.75;;;23.73;;
51216;SDS011;37283;49.760;8.648;2022-12-18T06:52:50;44.22;;;22.58;;
51216;SDS011;37283;49.760;8.648;2022-12-18T06:55:17;40.97;;;21.35;;
51216;SDS011;37283;49.760;8.648;2022-12-18T06:57:44;47.20;;;22.75;;
51216;SDS011;37283;49.760;8.648;2022-12-18T07:00:10;44.97;;;21.83;;
51216;SDS011;37283;49.760;8.648;2022-12-18T07:02:37;50.10;;;22.88;;
51216;SDS011;37283;49.760;8.648;2022-12-18T07:05:04;50.53;;;23.52;;
51216;SDS011;37283;49.760;8.648;2022-12-18T07:07:36;44.55;;;23.08;;
51216;SDS011;37283;49.760;8.648;2022-12-18T07:10:02;46.50;;;22.60;;
51216;SDS011;37283;49.760;8.648;2022-12-18T07:12:29;48.45;;;22.77;;
51216;SDS011;37283;49.760;8.648;2022-12-18T07:14:56;51.38;;;22.98;;
51216;SDS011;37283;49.760;8.648;2022-12-18T07:17:23;54.88;;;24.00;;
51216;SDS011;37283;49.760;8.648;2022-12-18T07:19:50;46.33;;;23.27;;
51216;SDS011;37283;49.760;8.648;2022-12-18T07:22:16;44.10;;;23.48;;
51216;SDS011;37283;49.760;8.648;2022-12-18T07:24:43;48.20;;;24.15;;
51216;SDS011;37283;49.760;8.648;2022-12-18T07:27:09;46.53;;;24.05;;
51216;SDS011;37283;49.760;8.648;2022-12-18T07:29:36;47.63;;;22.23;;
51216;SDS011;37283;49.760;8.648;2022-12-18T07:32:03;49.63;;;25.15;;
51216;SDS011;37283;49.760;8.648;2022-12-18T07:34:30;68.88;;;33.55;;
51216;SDS011;37283;49.760;8.648;2022-12-18T07:36:57;49.58;;;24.52;;
51216;SDS011;37283;49.760;8.648;2022-12-18T07:39:24;62.58;;;29.25;;
51216;SDS011;37283;49.760;8.648;2022-12-18T07:41:51;69.90;;;32.97;;
51216;SDS011;37283;49.760;8.648;2022-12-18T07:44:38;63.20;;;29.33;;
51216;SDS011;37283;49.760;8.648;2022-12-18T07:47:05;54.17;;;26.40;;
51216;SDS011;37283;49.760;8.648;2022-12-18T07:49:37;47.28;;;23.08;;
51216;SDS011;37283;49.760;8.648;2022-12-18T07:52:04;55.20;;;25.65;;
51216;SDS011;37283;49.760;8.648;2022-12-18T07:54:30;46.88;;;24.23;;
51216;SDS011;37283;49.760;8.648;2022-12-18T07:56:57;54.38;;;25.75;;
51216;SDS011;37283;49.760;8.648;2022-12-18T07:59:23;50.05;;;25.05;;
51216;SDS011;37283;49.760;8.648;2022-12-18T08:01:49;48.85;;;24.95;;
51216;SDS011;37283;49.760;8.648;2022-12-18T08:04:16;55.92;;;25.10;;
51216;SDS011;37283;49.760;8.648;2022-12-18T08:06:43;50.38;;;24.00;;
51216;SDS011;37283;49.760;8.648;2022-12-18T08:09:13;48.30;;;26.65;;
51216;SDS011;37283;49.760;8.648;2022-12-18T08:11:40;54.25;;;27.92;;
51216;SDS011;37283;49.760;8.648;2022-12-18T08:14:06;53.15;;;26.85;;
51216;SDS011;37283;49.760;8.648;2022-12-18T08:16:33;49.70;;;26.55;;
51216;SDS011;37283;49.760;8.648;2022-12-18T08:18:59;55.42;;;26.65;;
51216;SDS011;37283;49.760;8.648;2022-12-18T08:21:27;54.92;;;27.60;;
51216;SDS011;37283;49.760;8.648;2022-12-18T08:23:55;52.28;;;24.88;;
51216;SDS011;37283;49.760;8.648;2022-12-18T08:26:23;51.72;;;25.70;;
51216;SDS011;37283;49.760;8.648;2022-12-18T08:28:51;56.47;;;26.08;;
51216;SDS011;37283;49.760;8.648;2022-12-18T08:31:19;57.63;;;26.27;;
51216;SDS011;37283;49.760;8.648;2022-12-18T08:33:48;56.05;;;27.90;;
51216;SDS011;37283;49.760;8.648;2022-12-18T08:36:16;52.13;;;25.95;;
51216;SDS011;37283;49.760;8.648;2022-12-18T08:38:42;51.08;;;27.95;;
51216;SDS011;37283;49.760;8.648;2022-12-18T08:41:10;52.40;;;26.20;;
51216;SDS011;37283;49.760;8.648;2022-12-18T08:43:37;55.53;;;28.73;;
51216;SDS011;37283;49.760;8.648;2022-12-18T08:46:23;53.33;;;27.85;;
51216;SDS011;37283;49.760;8.648;2022-12-18T08:48:51;53.80;;;26.55;;
51216;SDS011;37283;49.760;8.648;2022-12-18T08:51:18;53.15;;;28.23;;
51216;SDS011;37283;49.760;8.648;2022-12-18T08:53:45;57.42;;;28.83;;
51216;SDS011;37283;49.760;8.648;2022-12-18T08:56:13;51.42;;;26.73;;
51216;SDS011;37283;49.760;8.648;2022-12-18T08:58:40;54.85;;;29.25;;
51216;SDS011;37283;49.760;8.648;2022-12-18T09:01:08;57.22;;;28.95;;
51216;SDS011;37283;49.760;8.648;2022-12-18T09:03:36;53.58;;;27.48;;
51216;SDS011;37283;49.760;8.648;2022-12-18T09:06:03;58.38;;;27.77;;
51216;SDS011;37283;49.760;8.648;2022-12-18T09:08:29;56.67;;;29.75;;
51216;SDS011;37283;49.760;8.648;2022-12-18T09:13:25;60.65;;;31.10;;
51216;SDS011;37283;49.760;8.648;2022-12-18T09:15:52;62.20;;;30.92;;
51216;SDS011;37283;49.760;8.648;2022-12-18T09:18:20;57.13;;;30.17;;
51216;SDS011;37283;49.760;8.648;2022-12-18T09:20:47;60.80;;;31.10;;
51216;SDS011;37283;49.760;8.648;2022-12-18T09:23:14;57.22;;;31.35;;
51216;SDS011;37283;49.760;8.648;2022-12-18T09:25:40;61.22;;;31.98;;
51216;SDS011;37283;49.760;8.648;2022-12-18T09:28:11;58.95;;;32.13;;
51216;SDS011;37283;49.760;8.648;2022-12-18T09:30:48;61.55;;;30.75;;
51216;SDS011;37283;49.760;8.648;2022-12-18T09:33:15;55.92;;;30.33;;
51216;SDS011;37283;49.760;8.648;2022-12-18T09:35:43;55.13;;;29.20;;
51216;SDS011;37283;49.760;8.648;2022-12-18T09:38:14;53.72;;;29.77;;
51216;SDS011;37283;49.760;8.648;2022-12-18T09:40:53;51.72;;;29.30;;
51216;SDS011;37283;49.760;8.648;2022-12-18T09:43:28;54.75;;;28.38;;
51216;SDS011;37283;49.760;8.648;2022-12-18T09:46:00;55.38;;;30.08;;
51216;SDS011;37283;49.760;8.648;2022-12-18T09:48:30;60.78;;;30.30;;
51216;SDS011;37283;49.760;8.648;2022-12-18T09:51:00;55.22;;;28.17;;
51216;SDS011;37283;49.760;8.648;2022-12-18T09:53:31;55.28;;;28.90;;
51216;SDS011;37283;49.760;8.648;2022-12-18T09:55:59;50.63;;;26.35;;
51216;SDS011;37283;49.760;8.648;2022-12-18T09:58:28;48.17;;;27.35;;
51216;SDS011;37283;49.760;8.648;2022-12-18T10:00:57;45.58;;;25.02;;
51216;SDS011;37283;49.760;8.648;2022-12-18T10:03:23;54.20;;;28.38;;
51216;SDS011;37283;49.760;8.648;2022-12-18T10:19:34;61.85;;;32.67;;
51216;SDS011;37283;49.760;8.648;2022-12-18T10:25:47;62.38;;;34.63;;
51216;SDS011;37283;49.760;8.648;2022-12-18T10:27:57;70.03;;;36.15;;
51216;SDS011;37283;49.760;8.648;2022-12-18T10:30:27;66.38;;;39.25;;
51216;SDS011;37283;49.760;8.648;2022-12-18T10:32:53;67.70;;;40.72;;
51216;SDS011;37283;49.760;8.648;2022-12-18T10:35:24;65.07;;;37.45;;
51216;SDS011;37283;49.760;8.648;2022-12-18T10:37:59;60.80;;;35.33;;
51216;SDS011;37283;49.760;8.648;2022-12-18T10:40:27;62.92;;;36.78;;
51216;SDS011;37283;49.760;8.648;2022-12-18T10:43:11;66.15;;;38.15;;
51216;SDS011;37283;49.760;8.648;2022-12-18T10:45:38;73.78;;;41.97;;
51216;SDS011;37283;49.760;8.648;2022-12-18T10:48:17;72.72;;;42.00;;
51216;SDS011;37283;49.760;8.648;2022-12-18T10:50:48;71.47;;;41.40;;
51216;SDS011;37283;49.760;8.648;2022-12-18T10:53:36;69.70;;;40.40;;
51216;SDS011;37283;49.760;8.648;2022-12-18T10:56:04;60.80;;;35.33;;
51216;SDS011;37283;49.760;8.648;2022-12-18T10:58:32;101.05;;;50.72;;
51216;SDS011;37283;49.760;8.648;2022-12-18T11:01:04;82.75;;;44.78;;
51216;SDS011;37283;49.760;8.648;2022-12-18T11:03:39;73.20;;;38.67;;
51216;SDS011;37283;49.760;8.648;2022-12-18T11:06:09;63.50;;;34.70;;
51216;SDS011;37283;49.760;8.648;2022-12-18T11:08:37;63.28;;;35.80;;
51216;SDS011;37283;49.760;8.648;2022-12-18T11:11:06;58.42;;;32.97;;
51216;SDS011;37283;49.760;8.648;2022-12-18T11:13:42;57.60;;;32.55;;
51216;SDS011;37283;49.760;8.648;2022-12-18T11:16:19;55.35;;;31.52;;
51216;SDS011;37283;49.760;8.648;2022-12-18T11:18:46;57.17;;;31.58;;
51216;SDS011;37283;49.760;8.648;2022-12-18T11:21:12;56.85;;;31.33;;
51216;SDS011;37283;49.760;8.648;2022-12-18T11:23:46;61.78;;;32.15;;
51216;SDS011;37283;49.760;8.648;2022-12-18T11:26:16;60.97;;;33.08;;
51216;SDS011;37283;49.760;8.648;2022-12-18T11:36:47;66.97;;;35.67;;
51216;SDS011;37283;49.760;8.648;2022-12-18T11:39:19;61.55;;;33.15;;
51216;SDS011;37283;49.760;8.648;2022-12-18T11:44:42;65.07;;;35.17;;
51216;SDS011;37283;49.760;8.648;2022-12-18T11:49:41;63.85;;;34.38;;
51216;SDS011;37283;49.760;8.648;2022-12-18T11:54:51;59.38;;;32.03;;
51216;SDS011;37283;49.760;8.648;2022-12-18T12:02:48;61.08;;;33.70;;
51216;SDS011;37283;49.760;8.648;2022-12-18T12:08:20;62.10;;;33.35;;
51216;SDS011;37283;49.760;8.648;2022-12-18T12:11:05;65.68;;;35.40;;
51216;SDS011;37283;49.760;8.648;2022-12-18T12:16:17;65.18;;;35.10;;
51216;SDS011;37283;49.760;8.648;2022-12-18T12:18:50;62.67;;;34.22;;
51216;SDS011;37283;49.760;8.648;2022-12-18T12:21:46;65.65;;;34.45;;
51216;SDS011;37283;49.760;8.648;2022-12-18T12:30:18;64.97;;;35.78;;
51216;SDS011;37283;49.760;8.648;2022-12-18T12:32:54;60.47;;;32.73;;
51216;SDS011;37283;49.760;8.648;2022-12-18T12:40:31;60.47;;;32.95;;
51216;SDS011;37283;49.760;8.648;2022-12-18T12:43:28;63.35;;;34.45;;
51216;SDS011;37283;49.760;8.648;2022-12-18T12:46:15;65.43;;;35.63;;
51216;SDS011;37283;49.760;8.648;2022-12-18T12:48:48;60.75;;;35.38;;
51216;SDS011;37283;49.760;8.648;2022-12-18T12:51:17;60.53;;;33.45;;
51216;SDS011;37283;49.760;8.648;2022-12-18T12:53:47;62.67;;;33.53;;
51216;SDS011;37283;49.760;8.648;2022-12-18T12:56:17;62.47;;;34.30;;
51216;SDS011;37283;49.760;8.648;2022-12-18T12:58:55;63.88;;;36.10;;
51216;SDS011;37283;49.760;8.648;2022-12-18T13:01:35;64.88;;;35.47;;
51216;SDS011;37283;49.760;8.648;2022-12-18T13:09:29;61.83;;;33.67;;
51216;SDS011;37283;49.760;8.648;2022-12-18T13:12:04;65.88;;;35.05;;
51216;SDS011;37283;49.760;8.648;2022-12-18T13:14:54;62.33;;;34.95;;
51216;SDS011;37283;49.760;8.648;2022-12-18T13:17:39;64.20;;;36.47;;
51216;SDS011;37283;49.760;8.648;2022-12-18T13:22:42;69.35;;;36.00;;
51216;SDS011;37283;49.760;8.648;2022-12-18T13:28:00;64.85;;;36.88;;
51216;SDS011;37283;49.760;8.648;2022-12-18T13:38:20;68.07;;;37.72;;
51216;SDS011;37283;49.760;8.648;2022-12-18T13:46:41;63.22;;;36.22;;
51216;SDS011;37283;49.760;8.648;2022-12-18T13:51:21;66.97;;;36.72;;
51216;SDS011;37283;49.760;8.648;2022-12-18T13:53:52;67.13;;;38.05;;
51216;SDS011;37283;49.760;8.648;2022-12-18T13:56:22;68.70;;;38.67;;
51216;SDS011;37283;49.760;8.648;2022-12-18T14:01:42;63.13;;;37.40;;
51216;SDS011;37283;49.760;8.648;2022-12-18T14:04:18;68.65;;;38.05;;
51216;SDS011;37283;49.760;8.648;2022-12-18T14:06:45;66.40;;;37.65;;
51216;SDS011;37283;49.760;8.648;2022-12-18T14:09:14;65.53;;;36.75;;
51216;SDS011;37283;49.760;8.648;2022-12-18T14:11:47;67.03;;;36.10;;
51216;SDS011;37283;49.760;8.648;2022-12-18T14:14:15;60.22;;;34.83;;
51216;SDS011;37283;49.760;8.648;2022-12-18T14:16:43;60.63;;;35.78;;
51216;SDS011;37283;49.760;8.648;2022-12-18T14:19:15;64.30;;;36.28;;
51216;SDS011;37283;49.760;8.648;2022-12-18T14:21:49;62.55;;;34.80;;
51216;SDS011;37283;49.760;8.648;2022-12-18T14:24:17;66.40;;;36.55;;
51216;SDS011;37283;49.760;8.648;2022-12-18T14:26:45;68.93;;;39.13;;
51216;SDS011;37283;49.760;8.648;2022-12-18T14:29:25;67.65;;;37.85;;
51216;SDS011;37283;49.760;8.648;2022-12-18T14:34:51;67.57;;;37.55;;
51216;SDS011;37283;49.760;8.648;2022-12-18T14:37:20;64.45;;;36.72;;
51216;SDS011;37283;49.760;8.648;2022-12-18T14:39:52;64.50;;;37.47;;
51216;SDS011;37283;49.760;8.648;2022-12-18T14:42:20;66.00;;;37.72;;
51216;SDS011;37283;49.760;8.648;2022-12-18T14:44:46;64.32;;;37.20;;
51216;SDS011;37283;49.760;8.648;2022-12-18T14:47:35;65.68;;;36.97;;
51216;SDS011;37283;49.760;8.648;2022-12-18T14:50:01;69.28;;;38.30;;
51216;SDS011;37283;49.760;8.648;2022-12-18T14:52:28;67.65;;;40.40;;
51216;SDS011;37283;49.760;8.648;2022-12-18T14:54:57;69.80;;;39.65;;
51216;SDS011;37283;49.760;8.648;2022-12-18T14:57:24;69.70;;;40.75;;
51216;SDS011;37283;49.760;8.648;2022-12-18T14:59:52;66.07;;;38.17;;
51216;SDS011;37283;49.760;8.648;2022-12-18T15:05:03;68.82;;;37.28;;
51216;SDS011;37283;49.760;8.648;2022-12-18T15:07:41;70.35;;;38.33;;
51216;SDS011;37283;49.760;8.648;2022-12-18T15:10:12;64.05;;;36.70;;
51216;SDS011;37283;49.760;8.648;2022-12-18T15:20:50;65.45;;;36.47;;
51216;SDS011;37283;49.760;8.648;2022-12-18T15:25:54;64.75;;;36.78;;
51216;SDS011;37283;49.760;8.648;2022-12-18T15:28:23;66.53;;;36.55;;
51216;SDS011;37283;49.760;8.648;2022-12-18T15:31:02;62.10;;;35.58;;
51216;SDS011;37283;49.760;8.648;2022-12-18T15:33:38;68.28;;;37.22;;
51216;SDS011;37283;49.760;8.648;2022-12-18T15:36:11;66.20;;;37.80;;
51216;SDS011;37283;49.760;8.648;2022-12-18T15:38:46;72.40;;;39.35;;
51216;SDS011;37283;49.760;8.648;2022-12-18T15:41:15;65.32;;;38.63;;
51216;SDS011;37283;49.760;8.648;2022-12-18T15:43:50;73.30;;;40.72;;
51216;SDS011;37283;49.760;8.648;2022-12-18T15:46:18;64.88;;;38.88;;
51216;SDS011;37283;49.760;8.648;2022-12-18T15:48:53;63.95;;;38.05;;
51216;SDS011;37283;49.760;8.648;2022-12-18T15:51:34;65.82;;;37.92;;
51216;SDS011;37283;49.760;8.648;2022-12-18T15:54:03;66.03;;;37.60;;
51216;SDS011;37283;49.760;8.648;2022-12-18T15:56:31;65.50;;;37.00;;
51216;SDS011;37283;49.760;8.648;2022-12-18T15:59:17;63.47;;;34.22;;
51216;SDS011;37283;49.760;8.648;2022-12-18T16:01:48;59.67;;;33.70;;
51216;SDS011;37283;49.760;8.648;2022-12-18T16:04:18;61.88;;;34.80;;
51216;SDS011;37283;49.760;8.648;2022-12-18T16:06:48;65.90;;;36.35;;
51216;SDS011;37283;49.760;8.648;2022-12-18T16:09:35;56.58;;;32.03;;
51216;SDS011;37283;49.760;8.648;2022-12-18T16:12:02;61.80;;;33.72;;
51216;SDS011;37283;49.760;8.648;2022-12-18T16:14:29;59.00;;;34.83;;
51216;SDS011;37283;49.760;8.648;2022-12-18T16:17:02;60.72;;;32.80;;
51216;SDS011;37283;49.760;8.648;2022-12-18T16:19:31;55.75;;;30.55;;
51216;SDS011;37283;49.760;8.648;2022-12-18T16:21:58;58.03;;;30.48;;
51216;SDS011;37283;49.760;8.648;2022-12-18T16:24:29;56.22;;;31.45;;
51216;SDS011;37283;49.760;8.648;2022-12-18T16:26:58;58.45;;;31.92;;
51216;SDS011;37283;49.760;8.648;2022-12-18T16:29:26;57.03;;;31.33;;
51216;SDS011;37283;49.760;8.648;2022-12-18T16:31:54;59.40;;;30.93;;
51216;SDS011;37283;49.760;8.648;2022-12-18T16:34:26;59.65;;;31.55;;
51216;SDS011;37283;49.760;8.648;2022-12-18T16:36:58;63.05;;;31.13;;
51216;SDS011;37283;49.760;8.648;2022-12-18T16:39:34;53.78;;;29.90;;
51216;SDS011;37283;49.760;8.648;2022-12-18T16:42:02;51.63;;;28.88;;
51216;SDS011;37283;49.760;8.648;2022-12-18T16:44:32;56.95;;;29.77;;
51216;SDS011;37283;49.760;8.648;2022-12-18T16:46:59;56.05;;;30.20;;
51216;SDS011;37283;49.760;8.648;2022-12-18T16:49:28;53.40;;;28.95;;
51216;SDS011;37283;49.760;8.648;2022-12-18T16:51:54;55.05;;;29.45;;